createdAt,value
2023-05-10T00:00:10.391Z,93306.91
2023-05-10T00:01:09.666Z,93306.90
2023-05-10T00:01:42.825Z,93304.41
2023-05-10T00:02:16.175Z,93305.85
2023-05-10T00:02:49.693Z,93306.48
2023-05-10T00:03:23.371Z,93307.61
2023-05-10T00:03:56.923Z,93302.74
2023-05-10T00:04:30.179Z,93301.99
2023-05-10T00:05:03.561Z,93300.10
2023-05-10T00:05:37.050Z,93299.77
2023-05-10T00:06:10.378Z,93301.33
2023-05-10T00:06:43.597Z,93300.91
2023-05-10T00:07:18.624Z,93297.58
2023-05-10T00:07:52.007Z,93299.20
2023-05-10T00:08:25.214Z,93298.35
2023-05-10T00:08:58.757Z,93296.92
2023-05-10T00:09:32.013Z,93298.39
2023-05-10T00:10:07.518Z,93296.51
2023-05-10T00:10:44.126Z,93294.24
2023-05-10T00:11:22.202Z,93297.75
2023-05-10T00:11:56.257Z,93293.77
2023-05-10T00:12:29.538Z,93291.24
2023-05-10T00:13:02.797Z,93289.79
2023-05-10T00:13:36.256Z,93292.05
2023-05-10T00:14:09.501Z,93294.77
2023-05-10T00:14:42.731Z,93292.84
2023-05-10T00:15:16.057Z,93292.90
2023-05-10T00:15:49.285Z,93289.64
2023-05-10T00:16:22.706Z,93291.17
2023-05-10T00:16:56.092Z,93289.34
2023-05-10T00:17:29.540Z,93287.61
2023-05-10T00:18:02.898Z,93288.98
2023-05-10T00:18:36.354Z,93282.59
2023-05-10T00:19:09.931Z,93280.65
2023-05-10T00:19:43.251Z,93280.77
2023-05-10T00:20:17.071Z,93282.64
2023-05-10T00:20:50.713Z,93280.07
2023-05-10T00:21:23.972Z,93280.26
2023-05-10T00:21:57.483Z,93275.80
2023-05-10T00:22:30.897Z,93275.89
2023-05-10T00:23:04.265Z,93277.81
2023-05-10T00:23:37.555Z,93280.31
2023-05-10T00:24:10.801Z,93278.56
2023-05-10T00:24:44.098Z,93275.59
2023-05-10T00:25:17.440Z,93274.89
2023-05-10T00:25:50.811Z,93277.48
2023-05-10T00:26:24.157Z,93272.10
2023-05-10T00:26:58.240Z,93278.24
2023-05-10T00:27:32.071Z,93279.18
2023-05-10T00:28:05.536Z,93276.02
2023-05-10T00:28:38.778Z,93277.38
2023-05-10T00:29:12.051Z,93278.05
2023-05-10T00:29:45.378Z,93277.16
2023-05-10T00:30:19.441Z,93277.00
2023-05-10T00:30:52.842Z,93276.41
2023-05-10T00:31:26.050Z,93278.27
2023-05-10T00:31:59.544Z,93277.90
2023-05-10T00:32:33.065Z,93276.74
2023-05-10T00:33:06.457Z,93271.27
2023-05-10T00:33:39.785Z,93271.71
2023-05-10T00:34:13.106Z,93273.44
2023-05-10T00:34:46.436Z,93270.46
2023-05-10T00:35:19.755Z,93271.08
2023-05-10T00:35:53.718Z,93268.41
2023-05-10T00:36:27.278Z,93265.22
2023-05-10T00:37:00.603Z,93269.55
2023-05-10T00:37:34.056Z,93271.84
2023-05-10T00:38:07.600Z,93265.13
2023-05-10T00:38:41.578Z,93270.26
2023-05-10T00:39:15.844Z,93264.58
2023-05-10T00:39:49.168Z,93265.09
2023-05-10T00:40:22.755Z,93267.55
2023-05-10T00:40:59.314Z,93267.07
2023-05-10T00:41:35.606Z,93265.75
2023-05-10T00:42:08.867Z,93267.36
2023-05-10T00:42:42.344Z,93264.74
2023-05-10T00:43:15.597Z,93263.66
2023-05-10T00:43:49.520Z,93265.85
2023-05-10T00:44:22.696Z,93263.74
2023-05-10T00:44:57.532Z,93261.93
2023-05-10T00:45:33.992Z,93262.48
2023-05-10T00:46:07.763Z,93264.75
2023-05-10T00:46:41.737Z,93264.93
2023-05-10T00:47:15.410Z,93268.73
2023-05-10T00:47:48.740Z,93266.15
2023-05-10T00:48:23.301Z,93266.70
2023-05-10T00:48:56.870Z,93266.13
2023-05-10T00:49:30.948Z,93269.24
2023-05-10T00:50:06.460Z,93268.66
2023-05-10T00:50:41.207Z,93267.73
2023-05-10T00:51:15.010Z,93268.03
2023-05-10T00:51:48.408Z,93269.08
2023-05-10T00:52:21.681Z,93267.19
2023-05-10T00:52:55.031Z,93270.00
2023-05-10T00:53:28.685Z,93269.20
2023-05-10T00:54:02.047Z,93273.08
2023-05-10T00:54:35.634Z,93274.43
2023-05-10T00:55:10.778Z,93268.48
2023-05-10T00:55:44.369Z,93270.59
2023-05-10T00:56:17.846Z,93272.48
2023-05-10T00:56:51.241Z,93272.13
2023-05-10T00:57:25.246Z,93272.11
2023-05-10T00:57:58.555Z,93273.92
2023-05-10T00:58:32.315Z,93270.86
2023-05-10T00:59:05.697Z,93270.95
2023-05-10T00:59:39.192Z,93272.69
2023-05-10T01:00:19.355Z,93272.70
2023-05-10T01:00:58.855Z,93271.92
2023-05-10T01:01:33.421Z,93275.70
2023-05-10T01:02:07.816Z,93272.44
2023-05-10T01:02:42.604Z,93273.64
2023-05-10T01:03:16.125Z,93273.92
2023-05-10T01:03:49.980Z,93275.16
2023-05-10T01:04:26.744Z,93273.33
2023-05-10T01:05:01.268Z,93273.58
2023-05-10T01:05:35.670Z,93274.31
2023-05-10T01:06:11.221Z,93276.45
2023-05-10T01:06:44.860Z,93275.64
2023-05-10T01:07:18.154Z,93273.28
2023-05-10T01:07:52.073Z,93272.80
2023-05-10T01:08:26.916Z,93274.98
2023-05-10T01:09:00.242Z,93278.13
2023-05-10T01:09:35.047Z,93279.54
2023-05-10T01:10:09.700Z,93280.57
2023-05-10T01:10:44.360Z,93276.86
2023-05-10T01:11:17.750Z,93275.92
2023-05-10T01:11:51.504Z,93279.05
2023-05-10T01:12:25.105Z,93277.64
2023-05-10T01:13:00.749Z,93279.35
2023-05-10T01:13:43.603Z,93277.84
2023-05-10T01:14:20.994Z,93280.30
2023-05-10T01:14:54.861Z,93278.52
2023-05-10T01:15:28.660Z,93279.23
2023-05-10T01:16:04.768Z,93279.59
2023-05-10T01:16:40.348Z,93280.73
2023-05-10T01:17:14.441Z,93278.11
2023-05-10T01:17:49.401Z,93284.52
2023-05-10T01:18:23.239Z,93282.13
2023-05-10T01:18:56.888Z,93283.31
2023-05-10T01:19:32.447Z,93284.63
2023-05-10T01:20:09.111Z,93286.81
2023-05-10T01:20:49.863Z,93285.48
2023-05-10T01:21:49.440Z,93285.54
2023-05-10T01:22:26.141Z,93293.55
2023-05-10T01:23:11.112Z,93292.33
2023-05-10T01:24:02.812Z,93293.41
2023-05-10T01:24:57.455Z,93294.64
2023-05-10T01:26:09.128Z,93295.48
2023-05-10T01:27:00.431Z,93301.56
2023-05-10T01:27:57.848Z,93302.81
2023-05-10T01:29:12.519Z,93300.34
2023-05-10T01:31:01.012Z,93299.30
2023-05-10T01:31:52.388Z,93302.99
2023-05-10T01:32:34.698Z,93302.88
2023-05-10T01:33:17.053Z,93304.61
2023-05-10T01:34:00.767Z,93299.09
2023-05-10T01:34:47.555Z,93299.84
2023-05-10T01:35:59.383Z,93301.59
2023-05-10T01:36:41.474Z,93302.99
2023-05-10T01:37:21.418Z,93304.20
2023-05-10T01:38:12.421Z,93304.29
2023-05-10T01:38:53.155Z,93304.77
2023-05-10T01:39:37.985Z,93303.61
2023-05-10T01:40:36.511Z,93305.98
2023-05-10T01:41:21.343Z,93301.38
2023-05-10T01:42:09.403Z,93300.93
2023-05-10T01:42:51.181Z,93301.61
2023-05-10T01:43:32.371Z,93301.19
2023-05-10T01:44:23.246Z,93296.07
2023-05-10T01:45:11.290Z,93294.06
2023-05-10T01:46:11.754Z,93295.66
2023-05-10T01:46:50.093Z,93294.69
2023-05-10T01:47:36.838Z,93293.67
2023-05-10T01:48:12.125Z,93292.02
2023-05-10T01:48:49.653Z,93288.73
2023-05-10T01:50:44.791Z,93294.34
2023-05-10T01:51:23.068Z,93296.87
2023-05-10T01:52:03.314Z,93298.42
2023-05-10T01:52:43.789Z,93300.10
2023-05-10T01:53:20.391Z,93298.34
2023-05-10T01:54:01.674Z,93294.14
2023-05-10T01:54:36.801Z,93295.66
2023-05-10T01:55:17.184Z,93297.07
2023-05-10T01:55:54.952Z,93295.94
2023-05-10T01:56:31.382Z,93294.88
2023-05-10T01:57:07.545Z,93297.44
2023-05-10T01:57:43.643Z,93295.28
2023-05-10T01:58:24.920Z,93297.17
2023-05-10T01:58:59.894Z,93294.65
2023-05-10T01:59:37.686Z,93293.27
2023-05-10T02:00:12.618Z,93293.13
2023-05-10T02:00:50.832Z,93290.77
2023-05-10T02:01:28.033Z,93291.25
2023-05-10T02:02:03.265Z,93290.02
2023-05-10T02:02:43.306Z,93291.60
2023-05-10T02:03:19.336Z,93290.91
2023-05-10T02:03:54.862Z,93291.42
2023-05-10T02:04:29.151Z,93290.23
2023-05-10T02:05:06.114Z,93290.41
2023-05-10T02:05:41.333Z,93289.52
2023-05-10T02:06:17.612Z,93290.52
2023-05-10T02:06:52.614Z,93289.91
2023-05-10T02:07:29.662Z,93289.86
2023-05-10T02:08:07.033Z,93285.17
2023-05-10T02:08:42.348Z,93287.65
2023-05-10T02:09:17.014Z,93288.64
2023-05-10T02:09:51.841Z,93292.84
2023-05-10T02:10:25.089Z,93290.07
2023-05-10T02:10:59.882Z,93291.28
2023-05-10T02:11:34.978Z,93292.22
2023-05-10T02:12:09.500Z,93291.13
2023-05-10T02:12:45.695Z,93293.60
2023-05-10T02:13:20.827Z,93293.89
2023-05-10T02:13:56.448Z,93295.67
2023-05-10T02:14:35.857Z,93291.87
2023-05-10T02:15:11.625Z,93291.71
2023-05-10T02:15:48.631Z,93293.25
2023-05-10T02:16:26.493Z,93291.90
2023-05-10T02:17:02.602Z,93285.70
2023-05-10T02:17:38.272Z,93289.27
2023-05-10T02:18:13.368Z,93286.02
2023-05-10T02:18:49.480Z,93283.25
2023-05-10T02:19:23.413Z,93287.73
2023-05-10T02:19:58.875Z,93287.00
2023-05-10T02:20:33.268Z,93284.61
2023-05-10T02:21:07.699Z,93290.40
2023-05-10T02:21:42.726Z,93289.08
2023-05-10T02:22:17.443Z,93287.75
2023-05-10T02:22:52.852Z,93288.80
2023-05-10T02:23:27.491Z,93288.73
2023-05-10T02:24:04.555Z,93287.79
2023-05-10T02:24:39.624Z,93286.45
2023-05-10T02:25:15.088Z,93285.55
2023-05-10T02:25:49.768Z,93285.59
2023-05-10T02:26:26.375Z,93288.31
2023-05-10T02:27:01.411Z,93285.83
2023-05-10T02:27:35.989Z,93281.19
2023-05-10T02:28:13.467Z,93282.85
2023-05-10T02:28:47.461Z,93281.27
2023-05-10T02:29:21.561Z,93283.48
2023-05-10T02:29:56.249Z,93281.30
2023-05-10T02:30:31.600Z,93283.48
2023-05-10T02:31:06.394Z,93282.90
2023-05-10T02:31:40.268Z,93282.45
2023-05-10T02:32:15.033Z,93283.34
2023-05-10T02:32:50.415Z,93283.39
2023-05-10T02:33:25.097Z,93281.46
2023-05-10T02:34:01.463Z,93279.13
2023-05-10T02:34:35.509Z,93275.42
2023-05-10T02:35:11.013Z,93275.81
2023-05-10T02:35:45.002Z,93271.32
2023-05-10T02:36:20.667Z,93274.70
2023-05-10T02:36:55.010Z,93271.55
2023-05-10T02:37:28.719Z,93272.90
2023-05-10T02:38:02.418Z,93271.19
2023-05-10T02:38:37.900Z,93269.86
2023-05-10T02:39:14.699Z,93270.23
2023-05-10T02:39:53.350Z,93264.73
2023-05-10T02:40:28.863Z,93267.88
2023-05-10T02:41:05.958Z,93266.86
2023-05-10T02:41:41.787Z,93270.05
2023-05-10T02:42:19.063Z,93269.38
2023-05-10T02:42:55.789Z,93269.13
2023-05-10T02:43:31.506Z,93270.13
2023-05-10T02:44:09.068Z,93271.12
2023-05-10T02:44:43.635Z,93265.29
2023-05-10T02:45:22.248Z,93269.09
2023-05-10T02:45:55.609Z,93264.73
2023-05-10T02:46:28.888Z,93267.20
2023-05-10T02:47:02.865Z,93269.09
2023-05-10T02:47:36.701Z,93271.23
2023-05-10T02:48:10.131Z,93266.41
2023-05-10T02:48:43.468Z,93265.84
2023-05-10T02:49:17.669Z,93262.79
2023-05-10T02:49:50.966Z,93266.08
2023-05-10T02:50:28.503Z,93267.59
2023-05-10T02:51:06.474Z,93266.30
2023-05-10T02:51:46.225Z,93268.83
2023-05-10T02:52:24.833Z,93271.68
2023-05-10T02:53:03.380Z,93268.94
2023-05-10T02:53:39.801Z,93269.14
2023-05-10T02:54:19.900Z,93272.51
2023-05-10T02:54:57.075Z,93270.98
2023-05-10T02:55:36.568Z,93273.36
2023-05-10T02:56:16.600Z,93273.69
2023-05-10T02:56:55.052Z,93272.32
2023-05-10T02:57:33.252Z,93272.29
2023-05-10T02:58:06.725Z,93270.21
2023-05-10T02:58:40.072Z,93270.78
2023-05-10T02:59:13.517Z,93272.02
2023-05-10T02:59:47.283Z,93272.51
2023-05-10T03:00:20.669Z,93272.70
2023-05-10T03:00:54.205Z,93272.58
2023-05-10T03:01:27.674Z,93272.21
2023-05-10T03:02:02.043Z,93271.31
2023-05-10T03:02:35.620Z,93273.25
2023-05-10T03:03:09.657Z,93270.91
2023-05-10T03:03:43.009Z,93271.75
2023-05-10T03:04:16.324Z,93270.35
2023-05-10T03:04:49.629Z,93267.33
2023-05-10T03:05:23.173Z,93268.63
2023-05-10T03:05:57.024Z,93267.33
2023-05-10T03:06:31.179Z,93267.23
2023-05-10T03:07:04.881Z,93266.48
2023-05-10T03:07:38.627Z,93266.60
2023-05-10T03:08:12.219Z,93266.98
2023-05-10T03:08:46.910Z,93267.95
2023-05-10T03:09:21.027Z,93270.73
2023-05-10T03:09:54.409Z,93268.57
2023-05-10T03:10:30.522Z,93269.15
2023-05-10T03:11:43.617Z,93267.58
2023-05-10T03:12:29.671Z,93266.11
2023-05-10T03:13:23.114Z,93270.92
2023-05-10T03:14:10.300Z,93272.70
2023-05-10T03:15:13.153Z,93271.02
2023-05-10T03:16:09.215Z,93269.52
2023-05-10T03:16:48.364Z,93265.20
2023-05-10T03:17:36.808Z,93271.23
2023-05-10T03:18:22.377Z,93266.58
2023-05-10T03:19:17.791Z,93268.56
2023-05-10T03:19:59.231Z,93270.15
2023-05-10T03:20:44.737Z,93276.12
2023-05-10T03:21:20.034Z,93271.61
2023-05-10T03:21:55.157Z,93269.61
2023-05-10T03:22:51.207Z,93271.48
2023-05-10T03:23:36.547Z,93270.99
2023-05-10T03:24:13.579Z,93269.95
2023-05-10T03:24:48.798Z,93272.17
2023-05-10T03:25:24.156Z,93269.98
2023-05-10T03:25:58.187Z,93274.20
2023-05-10T03:26:31.654Z,93274.66
2023-05-10T03:27:15.494Z,93273.00
2023-05-10T03:27:49.327Z,93276.20
2023-05-10T03:28:26.152Z,93276.27
2023-05-10T03:29:00.686Z,93275.17
2023-05-10T03:29:34.816Z,93272.55
2023-05-10T03:30:11.647Z,93277.27
2023-05-10T03:30:46.123Z,93277.63
2023-05-10T03:31:20.020Z,93274.99
2023-05-10T03:31:53.487Z,93275.00
2023-05-10T03:32:28.408Z,93276.05
2023-05-10T03:33:07.507Z,93276.84
2023-05-10T03:33:49.561Z,93273.70
2023-05-10T03:34:27.088Z,93272.34
2023-05-10T03:35:00.255Z,93271.20
2023-05-10T03:35:33.875Z,93275.36
2023-05-10T03:36:07.794Z,93274.33
2023-05-10T03:36:41.098Z,93271.77
2023-05-10T03:37:14.490Z,93271.31
2023-05-10T03:37:48.625Z,93272.20
2023-05-10T03:38:22.074Z,93271.59
2023-05-10T03:38:55.768Z,93271.49
2023-05-10T03:39:29.140Z,93269.05
2023-05-10T03:40:05.722Z,93272.56
2023-05-10T03:40:40.582Z,93269.55
2023-05-10T03:41:14.382Z,93272.59
2023-05-10T03:41:47.798Z,93271.80
2023-05-10T03:42:20.989Z,93273.10
2023-05-10T03:42:54.069Z,93274.32
2023-05-10T03:43:27.202Z,93274.89
2023-05-10T03:44:00.342Z,93275.30
2023-05-10T03:44:34.485Z,93279.38
2023-05-10T03:45:08.765Z,93275.48
2023-05-10T03:45:42.014Z,93279.48
2023-05-10T03:46:15.256Z,93277.80
2023-05-10T03:46:48.626Z,93280.13
2023-05-10T03:47:22.217Z,93278.03
2023-05-10T03:47:55.625Z,93277.09
2023-05-10T03:48:28.900Z,93278.91
2023-05-10T03:49:02.099Z,93275.73
2023-05-10T03:49:35.445Z,93278.86
2023-05-10T03:50:09.289Z,93281.13
2023-05-10T03:50:42.556Z,93281.81
2023-05-10T03:51:15.778Z,93278.06
2023-05-10T03:51:49.126Z,93282.03
2023-05-10T03:52:22.491Z,93283.55
2023-05-10T03:52:56.265Z,93281.67
2023-05-10T03:53:29.533Z,93284.70
2023-05-10T03:54:02.617Z,93282.16
2023-05-10T03:54:36.094Z,93283.43
2023-05-10T03:55:09.524Z,93280.58
2023-05-10T03:55:42.693Z,93282.14
2023-05-10T03:56:15.831Z,93284.80
2023-05-10T03:56:51.625Z,93279.50
2023-05-10T03:57:25.049Z,93277.63
2023-05-10T03:57:58.599Z,93277.05
2023-05-10T03:58:32.005Z,93277.40
2023-05-10T03:59:10.108Z,93277.23
2023-05-10T03:59:43.469Z,93277.75
2023-05-10T04:00:17.437Z,93273.11
2023-05-10T04:00:50.772Z,93273.63
2023-05-10T04:01:24.097Z,93274.64
2023-05-10T04:01:57.376Z,93274.07
2023-05-10T04:02:31.616Z,93276.78
2023-05-10T04:03:05.215Z,93272.10
2023-05-10T04:03:39.563Z,93279.83
2023-05-10T04:04:13.158Z,93275.41
2023-05-10T04:04:46.508Z,93278.14
2023-05-10T04:05:19.720Z,93280.86
2023-05-10T04:06:03.115Z,93281.58
2023-05-10T04:06:36.773Z,93281.20
2023-05-10T04:07:11.566Z,93282.98
2023-05-10T04:07:45.616Z,93283.29
2023-05-10T04:08:19.090Z,93283.35
2023-05-10T04:08:52.389Z,93281.70
2023-05-10T04:09:25.633Z,93281.80
2023-05-10T04:09:59.058Z,93282.08
2023-05-10T04:10:32.635Z,93280.05
2023-05-10T04:11:10.071Z,93282.16
2023-05-10T04:11:43.433Z,93282.27
2023-05-10T04:12:16.745Z,93277.60
2023-05-10T04:12:50.087Z,93279.17
2023-05-10T04:13:23.914Z,93279.13
2023-05-10T04:13:57.164Z,93278.52
2023-05-10T04:14:30.400Z,93279.86
2023-05-10T04:15:03.986Z,93281.20
2023-05-10T04:15:37.207Z,93281.84
2023-05-10T04:16:10.631Z,93284.47
2023-05-10T04:16:43.947Z,93286.62
2023-05-10T04:17:17.225Z,93283.55
2023-05-10T04:17:51.593Z,93286.52
2023-05-10T04:18:24.971Z,93285.14
2023-05-10T04:18:58.589Z,93290.61
2023-05-10T04:19:32.518Z,93285.40
2023-05-10T04:20:06.456Z,93291.14
2023-05-10T04:20:39.757Z,93290.61
2023-05-10T04:21:14.645Z,93289.20
2023-05-10T04:21:47.941Z,93291.23
2023-05-10T04:22:21.997Z,93287.90
2023-05-10T04:22:55.173Z,93289.87
2023-05-10T04:23:29.048Z,93290.10
2023-05-10T04:24:02.357Z,93288.66
2023-05-10T04:24:35.524Z,93290.73
2023-05-10T04:25:09.449Z,93288.39
2023-05-10T04:25:42.662Z,93290.58
2023-05-10T04:26:16.125Z,93288.56
2023-05-10T04:26:49.376Z,93293.70
2023-05-10T04:27:22.579Z,93290.64
2023-05-10T04:27:55.733Z,93294.90
2023-05-10T04:28:29.075Z,93292.06
2023-05-10T04:29:02.324Z,93292.04
2023-05-10T04:29:35.649Z,93292.91
2023-05-10T04:30:09.322Z,93293.05
2023-05-10T04:30:42.602Z,93293.04
2023-05-10T04:31:15.898Z,93284.41
2023-05-10T04:31:50.056Z,93292.58
2023-05-10T04:32:23.571Z,93291.36
2023-05-10T04:32:56.826Z,93292.16
2023-05-10T04:33:30.063Z,93294.61
2023-05-10T04:34:03.661Z,93289.63
2023-05-10T04:34:37.801Z,93291.93
2023-05-10T04:35:11.862Z,93286.48
2023-05-10T04:35:46.411Z,93285.79
2023-05-10T04:36:19.904Z,93292.88
2023-05-10T04:36:53.150Z,93288.28
2023-05-10T04:37:26.355Z,93288.79
2023-05-10T04:37:59.640Z,93285.52
2023-05-10T04:38:33.019Z,93287.27
2023-05-10T04:39:06.380Z,93283.79
2023-05-10T04:39:41.992Z,93284.95
2023-05-10T04:40:15.912Z,93281.92
2023-05-10T04:40:49.426Z,93285.75
2023-05-10T04:41:22.858Z,93284.45
2023-05-10T04:41:56.085Z,93284.56
2023-05-10T04:42:29.417Z,93285.77
2023-05-10T04:43:02.676Z,93283.27
2023-05-10T04:43:36.601Z,93279.79
2023-05-10T04:44:10.055Z,93286.74
2023-05-10T04:44:43.702Z,93282.71
2023-05-10T04:45:16.973Z,93281.88
2023-05-10T04:45:53.924Z,93272.02
2023-05-10T04:46:27.207Z,93282.69
2023-05-10T04:47:01.377Z,93285.93
2023-05-10T04:47:34.884Z,93284.71
2023-05-10T04:48:08.641Z,93284.31
2023-05-10T04:48:41.864Z,93280.83
2023-05-10T04:49:15.678Z,93284.86
2023-05-10T04:49:48.921Z,93285.98
2023-05-10T04:50:22.170Z,93283.43
2023-05-10T04:50:55.686Z,93284.40
2023-05-10T04:51:29.068Z,93285.12
2023-05-10T04:52:02.327Z,93278.86
2023-05-10T04:52:35.778Z,93282.55
2023-05-10T04:53:09.044Z,93278.16
2023-05-10T04:53:46.409Z,93280.73
2023-05-10T04:54:21.829Z,93281.60
2023-05-10T04:54:55.138Z,93283.50
2023-05-10T04:55:28.398Z,93284.31
2023-05-10T04:56:01.776Z,93281.23
2023-05-10T04:56:35.202Z,93279.44
2023-05-10T04:57:08.499Z,93283.34
2023-05-10T04:57:41.681Z,93284.12
2023-05-10T04:58:15.062Z,93281.80
2023-05-10T04:58:48.288Z,93281.69
2023-05-10T04:59:21.524Z,93280.16
2023-05-10T04:59:55.550Z,93281.77
2023-05-10T05:00:28.805Z,93283.27
2023-05-10T05:01:09.406Z,93284.46
2023-05-10T05:01:42.810Z,93280.64
2023-05-10T05:02:15.973Z,93283.04
2023-05-10T05:02:49.393Z,93283.09
2023-05-10T05:03:23.378Z,93285.30
2023-05-10T05:03:57.425Z,93280.42
2023-05-10T05:04:32.158Z,93285.23
2023-05-10T05:05:05.870Z,93283.56
2023-05-10T05:05:39.284Z,93282.31
2023-05-10T05:06:12.513Z,93287.36
2023-05-10T05:06:45.831Z,93285.26
2023-05-10T05:07:19.164Z,93286.79
2023-05-10T05:07:52.439Z,93287.27
2023-05-10T05:08:25.714Z,93290.02
2023-05-10T05:08:59.171Z,93288.02
2023-05-10T05:09:33.285Z,93288.40
2023-05-10T05:10:08.388Z,93291.41
2023-05-10T05:10:41.915Z,93288.67
2023-05-10T05:11:16.464Z,93289.68
2023-05-10T05:11:50.034Z,93288.46
2023-05-10T05:12:23.361Z,93290.56
2023-05-10T05:12:56.728Z,93291.10
2023-05-10T05:13:30.486Z,93291.95
2023-05-10T05:14:03.912Z,93294.21
2023-05-10T05:14:37.413Z,93293.86
2023-05-10T05:15:11.903Z,93292.23
2023-05-10T05:15:45.231Z,93293.56
2023-05-10T05:16:18.746Z,93296.39
2023-05-10T05:16:54.584Z,93291.81
2023-05-10T05:17:27.928Z,93295.45
2023-05-10T05:18:01.368Z,93294.46
2023-05-10T05:18:34.714Z,93295.24
2023-05-10T05:19:08.143Z,93294.72
2023-05-10T05:19:41.422Z,93293.57
2023-05-10T05:20:15.724Z,93296.72
2023-05-10T05:20:49.128Z,93295.89
2023-05-10T05:21:22.820Z,93289.83
2023-05-10T05:21:56.029Z,93292.58
2023-05-10T05:22:29.522Z,93293.20
2023-05-10T05:23:03.027Z,93293.95
2023-05-10T05:23:36.469Z,93295.99
2023-05-10T05:24:09.757Z,93299.26
2023-05-10T05:24:42.991Z,93294.38
2023-05-10T05:25:17.055Z,93293.15
2023-05-10T05:25:50.265Z,93292.79
2023-05-10T05:26:23.535Z,93292.99
2023-05-10T05:26:56.757Z,93299.98
2023-05-10T05:27:30.480Z,93296.52
2023-05-10T05:28:03.750Z,93298.58
2023-05-10T05:28:38.507Z,93298.98
2023-05-10T05:29:11.833Z,93301.42
2023-05-10T05:29:44.942Z,93302.14
2023-05-10T05:30:18.283Z,93300.98
2023-05-10T05:30:51.661Z,93298.29
2023-05-10T05:31:24.804Z,93298.25
2023-05-10T05:31:58.149Z,93298.71
2023-05-10T05:32:31.673Z,93299.61
2023-05-10T05:33:05.392Z,93294.13
2023-05-10T05:33:38.818Z,93298.87
2023-05-10T05:34:12.140Z,93297.70
2023-05-10T05:34:46.602Z,93300.15
2023-05-10T05:35:19.905Z,93301.52
2023-05-10T05:35:53.375Z,93299.93
2023-05-10T05:36:26.764Z,93300.49
2023-05-10T05:37:00.013Z,93301.52
2023-05-10T05:37:33.528Z,93302.22
2023-05-10T05:38:07.390Z,93301.16
2023-05-10T05:38:40.587Z,93304.08
2023-05-10T05:39:13.870Z,93305.22
2023-05-10T05:39:47.178Z,93303.70
2023-05-10T05:40:21.540Z,93303.67
2023-05-10T05:40:54.749Z,93304.96
2023-05-10T05:41:27.990Z,93300.86
2023-05-10T05:42:01.177Z,93301.45
2023-05-10T05:42:34.497Z,93301.11
2023-05-10T05:43:07.802Z,93305.57
2023-05-10T05:43:41.103Z,93301.83
2023-05-10T05:44:14.350Z,93301.88
2023-05-10T05:44:47.702Z,93300.23
2023-05-10T05:45:21.250Z,93299.67
2023-05-10T05:45:55.182Z,93299.06
2023-05-10T05:46:28.446Z,93298.12
2023-05-10T05:47:01.910Z,93299.44
2023-05-10T05:47:35.473Z,93299.78
2023-05-10T05:48:08.891Z,93302.37
2023-05-10T05:48:42.223Z,93303.40
2023-05-10T05:49:16.104Z,93302.76
2023-05-10T05:49:49.402Z,93304.52
2023-05-10T05:50:22.603Z,93305.98
2023-05-10T05:50:57.686Z,93307.73
2023-05-10T05:51:32.128Z,93304.36
2023-05-10T05:52:05.902Z,93307.46
2023-05-10T05:52:39.197Z,93309.95
2023-05-10T05:53:12.598Z,93310.00
2023-05-10T05:53:45.770Z,93311.51
2023-05-10T05:54:19.029Z,93309.03
2023-05-10T05:54:52.314Z,93308.13
2023-05-10T05:55:27.039Z,93313.64
2023-05-10T05:56:00.243Z,93315.77
2023-05-10T05:56:33.423Z,93314.58
2023-05-10T05:57:06.935Z,93313.48
2023-05-10T05:57:40.351Z,93312.39
2023-05-10T05:58:13.536Z,93314.41
2023-05-10T05:58:46.909Z,93315.01
2023-05-10T05:59:20.191Z,93315.17
2023-05-10T05:59:53.522Z,93309.68
2023-05-10T06:00:27.038Z,93310.84
2023-05-10T06:01:00.376Z,93309.08
2023-05-10T06:01:33.523Z,93313.29
2023-05-10T06:02:06.892Z,93312.94
2023-05-10T06:02:40.402Z,93310.69
2023-05-10T06:03:13.937Z,93312.69
2023-05-10T06:03:47.425Z,93315.32
2023-05-10T06:04:20.850Z,93313.23
2023-05-10T06:04:54.164Z,93311.73
2023-05-10T06:05:27.509Z,93311.88
2023-05-10T06:06:00.715Z,93313.14
2023-05-10T06:06:34.195Z,93311.94
2023-05-10T06:07:07.494Z,93312.80
2023-05-10T06:07:43.361Z,93313.23
2023-05-10T06:08:16.827Z,93313.42
2023-05-10T06:08:50.253Z,93317.27
2023-05-10T06:09:25.671Z,93314.67
2023-05-10T06:09:59.071Z,93320.63
2023-05-10T06:10:32.311Z,93320.78
2023-05-10T06:11:05.716Z,93323.35
2023-05-10T06:11:39.232Z,93322.73
2023-05-10T06:12:13.114Z,93322.83
2023-05-10T06:12:46.486Z,93324.90
2023-05-10T06:13:19.925Z,93326.48
2023-05-10T06:13:53.191Z,93324.56
2023-05-10T06:14:26.624Z,93325.16
2023-05-10T06:14:59.938Z,93326.56
2023-05-10T06:15:33.994Z,93330.31
2023-05-10T06:16:07.716Z,93329.57
2023-05-10T06:16:41.719Z,93330.02
2023-05-10T06:17:15.045Z,93332.73
2023-05-10T06:17:50.332Z,93328.93
2023-05-10T06:18:24.030Z,93330.23
2023-05-10T06:18:57.722Z,93331.35
2023-05-10T06:19:30.977Z,93327.80
2023-05-10T06:20:04.678Z,93324.39
2023-05-10T06:20:37.876Z,93330.94
2023-05-10T06:21:11.105Z,93328.81
2023-05-10T06:21:44.428Z,93330.17
2023-05-10T06:22:17.735Z,93324.65
2023-05-10T06:22:50.971Z,93331.27
2023-05-10T06:23:24.553Z,93331.33
2023-05-10T06:23:57.863Z,93330.00
2023-05-10T06:24:31.221Z,93330.45
2023-05-10T06:25:04.596Z,93330.17
2023-05-10T06:25:38.062Z,93333.34
2023-05-10T06:26:11.397Z,93332.56
2023-05-10T06:26:44.827Z,93328.90
2023-05-10T06:27:18.545Z,93329.42
2023-05-10T06:27:53.619Z,93335.30
2023-05-10T06:28:27.376Z,93326.36
2023-05-10T06:29:00.781Z,93333.05
2023-05-10T06:29:34.429Z,93337.52
2023-05-10T06:30:12.983Z,93336.69
2023-05-10T06:30:46.797Z,93342.08
2023-05-10T06:31:20.117Z,93335.13
2023-05-10T06:31:54.032Z,93337.60
2023-05-10T06:32:27.358Z,93340.06
2023-05-10T06:33:00.674Z,93337.56
2023-05-10T06:33:34.995Z,93336.20
2023-05-10T06:34:09.148Z,93335.39
2023-05-10T06:34:47.344Z,93340.45
2023-05-10T06:35:20.705Z,93340.95
2023-05-10T06:35:54.108Z,93339.24
2023-05-10T06:36:28.400Z,93341.11
2023-05-10T06:37:01.705Z,93340.78
2023-05-10T06:37:35.584Z,93337.06
2023-05-10T06:38:08.845Z,93336.83
2023-05-10T06:38:42.315Z,93341.27
2023-05-10T06:39:15.627Z,93341.98
2023-05-10T06:39:48.948Z,93342.27
2023-05-10T06:40:22.462Z,93343.67
2023-05-10T06:40:55.802Z,93341.95
2023-05-10T06:41:28.977Z,93340.04
2023-05-10T06:42:05.908Z,93340.17
2023-05-10T06:42:39.216Z,93345.63
2023-05-10T06:43:12.412Z,93346.31
2023-05-10T06:43:45.662Z,93345.79
2023-05-10T06:44:18.810Z,93351.05
2023-05-10T06:44:52.177Z,93347.11
2023-05-10T06:45:25.615Z,93349.13
2023-05-10T06:45:58.941Z,93348.60
2023-05-10T06:46:32.243Z,93348.02
2023-05-10T06:47:05.611Z,93350.41
2023-05-10T06:47:39.441Z,93349.73
2023-05-10T06:48:12.879Z,93349.63
2023-05-10T06:48:46.078Z,93346.35
2023-05-10T06:49:19.249Z,93346.69
2023-05-10T06:49:52.406Z,93347.11
2023-05-10T06:50:25.938Z,93350.36
2023-05-10T06:50:59.257Z,93348.02
2023-05-10T06:51:32.463Z,93348.70
2023-05-10T06:52:05.746Z,93349.17
2023-05-10T06:52:39.130Z,93350.85
2023-05-10T06:53:13.169Z,93352.60
2023-05-10T06:53:46.446Z,93349.84
2023-05-10T06:54:20.412Z,93352.33
2023-05-10T06:54:53.586Z,93351.69
2023-05-10T06:55:27.573Z,93351.40
2023-05-10T06:56:00.855Z,93354.59
2023-05-10T06:56:34.335Z,93356.59
2023-05-10T06:57:23.461Z,93354.27